createdAt,value
2022-09-20T00:02:09.610Z,1.00
2022-09-20T00:04:36.551Z,0.93
2022-09-20T00:07:03.581Z,0.90
2022-09-20T00:09:30.538Z,2.03
2022-09-20T00:11:57.437Z,0.80
2022-09-20T00:14:24.294Z,1.00
2022-09-20T00:16:51.439Z,0.93
2022-09-20T00:19:21.658Z,0.85
2022-09-20T00:21:48.607Z,1.20
2022-09-20T00:24:16.178Z,1.13
2022-09-20T00:26:43.265Z,1.13
2022-09-20T00:29:10.206Z,1.10
2022-09-20T00:31:39.219Z,1.17
2022-09-20T00:34:24.519Z,1.10
2022-09-20T00:36:51.443Z,1.30
2022-09-20T00:39:18.328Z,1.05
2022-09-20T00:41:45.882Z,0.88
2022-09-20T00:44:40.789Z,0.80
2022-09-20T00:47:14.380Z,1.05
2022-09-20T00:49:41.476Z,0.77
2022-09-20T00:52:08.915Z,0.80
2022-09-20T00:54:36.615Z,0.88
2022-09-20T00:57:04.415Z,0.75
2022-09-20T00:59:38.908Z,0.80
2022-09-20T01:02:20.468Z,1.00
2022-09-20T01:04:48.766Z,1.05
2022-09-20T01:07:18.308Z,0.75
2022-09-20T01:09:45.342Z,0.93
2022-09-20T01:12:16.480Z,1.67
2022-09-20T01:14:45.269Z,0.70
2022-09-20T01:17:13.959Z,0.80
2022-09-20T01:19:53.978Z,0.90
2022-09-20T01:22:52.053Z,0.80
2022-09-20T01:25:24.804Z,0.77
2022-09-20T01:27:54.164Z,0.80
2022-09-20T01:30:24.593Z,1.13
2022-09-20T01:33:14.677Z,0.85
2022-09-20T01:35:44.893Z,0.80
2022-09-20T01:38:40.381Z,0.70
2022-09-20T01:41:24.677Z,0.60
2022-09-20T01:44:31.055Z,1.58
2022-09-20T01:49:52.942Z,0.70
2022-09-20T01:52:41.318Z,0.70
2022-09-20T01:55:46.108Z,0.75
2022-09-20T01:58:43.910Z,0.85
2022-09-20T02:01:16.578Z,0.60
2022-09-20T02:04:11.218Z,0.65
2022-09-20T02:06:57.248Z,0.47
2022-09-20T02:09:52.227Z,0.57
2022-09-20T02:12:54.405Z,0.70
2022-09-20T02:16:05.793Z,0.65
2022-09-20T02:18:32.674Z,0.57
2022-09-20T02:21:40.480Z,0.57
2022-09-20T02:24:25.701Z,0.75
2022-09-20T02:27:31.422Z,0.70
2022-09-20T02:30:27.561Z,1.40
2022-09-20T02:35:45.533Z,1.30
2022-09-20T02:38:33.569Z,0.60
2022-09-20T02:41:06.562Z,0.65
2022-09-20T02:43:54.233Z,0.70
2022-09-20T02:46:38.935Z,0.45
2022-09-20T02:49:28.539Z,1.20
2022-09-20T02:52:06.815Z,0.68
2022-09-20T02:54:54.187Z,0.70
2022-09-20T02:57:44.953Z,0.85
2022-09-20T03:00:23.843Z,0.70
2022-09-20T03:02:56.555Z,0.80
2022-09-20T03:05:36.849Z,0.70
2022-09-20T03:08:38.207Z,0.80
2022-09-20T03:11:20.013Z,0.63
2022-09-20T03:13:46.857Z,0.90
2022-09-20T03:16:26.118Z,0.95
2022-09-20T03:19:23.761Z,0.82
2022-09-20T03:22:23.170Z,0.85
2022-09-20T03:25:05.131Z,0.73
2022-09-20T03:27:58.548Z,0.80
2022-09-20T03:30:59.437Z,0.90
2022-09-20T03:33:35.450Z,0.90
2022-09-20T03:36:30.195Z,1.05
2022-09-20T03:39:34.444Z,1.00
2022-09-20T03:42:11.142Z,0.73
2022-09-20T03:44:50.052Z,0.98
2022-09-20T03:47:25.969Z,1.10
2022-09-20T03:50:22.463Z,1.00
2022-09-20T03:53:17.008Z,1.00
2022-09-20T03:55:53.621Z,1.10
2022-09-20T03:58:42.223Z,0.98
2022-09-20T04:01:14.986Z,1.00
2022-09-20T04:03:57.404Z,1.15
2022-09-20T04:06:39.707Z,0.95
2022-09-20T04:09:35.156Z,1.10
2022-09-20T04:12:11.124Z,1.10
2022-09-20T04:14:51.402Z,1.00
2022-09-20T04:17:21.150Z,1.10
2022-09-20T04:20:12.095Z,1.10
2022-09-20T04:22:42.508Z,1.10
2022-09-20T04:25:23.812Z,1.45
2022-09-20T04:27:55.158Z,0.95
2022-09-20T04:30:29.961Z,1.20
2022-09-20T04:33:21.119Z,1.23
2022-09-20T04:36:30.512Z,1.15
2022-09-20T04:39:11.727Z,1.00
2022-09-20T04:42:00.159Z,1.00
2022-09-20T04:44:55.218Z,1.13
2022-09-20T04:48:00.943Z,1.00
2022-09-20T04:50:42.122Z,1.17
2022-09-20T04:53:09.189Z,1.00
2022-09-20T04:55:45.902Z,1.17
2022-09-20T04:58:36.411Z,1.10
2022-09-20T05:01:17.046Z,1.13
2022-09-20T05:04:04.430Z,1.20
2022-09-20T05:06:31.273Z,0.93
2022-09-20T05:09:26.102Z,1.10
2022-09-20T05:12:01.923Z,1.60
2022-09-20T05:14:41.886Z,1.17
2022-09-20T05:17:21.827Z,1.20
2022-09-20T05:20:13.560Z,0.75
2022-09-20T05:23:17.769Z,0.63
2022-09-20T05:26:08.485Z,0.88
2022-09-20T05:29:02.984Z,0.50
2022-09-20T05:31:56.367Z,0.40
2022-09-20T05:34:42.834Z,0.70
2022-09-20T05:37:37.002Z,0.68
2022-09-20T05:40:25.711Z,0.50
2022-09-20T05:42:57.020Z,0.70
2022-09-20T05:45:48.321Z,0.50
2022-09-20T05:48:32.221Z,1.25
2022-09-20T05:51:03.710Z,0.50
2022-09-20T05:53:45.350Z,0.70
2022-09-20T05:56:24.313Z,0.68
2022-09-20T05:59:11.904Z,0.35
2022-09-20T06:02:01.811Z,0.63
2022-09-20T06:04:43.081Z,1.00
2022-09-20T06:07:21.100Z,0.90
2022-09-20T06:10:26.197Z,0.70
2022-09-20T06:13:08.930Z,0.73
2022-09-20T06:15:49.746Z,0.82
2022-09-20T06:18:16.553Z,0.70
2022-09-20T06:20:55.509Z,0.68
2022-09-20T06:23:22.766Z,0.80
2022-09-20T06:25:57.747Z,0.70
2022-09-20T06:28:30.262Z,0.70
2022-09-20T06:30:57.491Z,1.00
2022-09-20T06:33:26.202Z,1.15
2022-09-20T06:36:26.789Z,1.10
2022-09-20T06:39:30.894Z,1.17
2022-09-20T06:41:58.083Z,1.40
2022-09-20T06:44:26.277Z,1.50
2022-09-20T06:46:54.592Z,1.00
2022-09-20T06:49:22.589Z,1.20
2022-09-20T06:51:52.548Z,0.82
2022-09-20T06:54:22.033Z,0.85
2022-09-20T06:56:50.742Z,0.60
2022-09-20T06:59:17.669Z,0.80
2022-09-20T07:01:44.841Z,0.70
2022-09-20T07:04:11.797Z,1.52
2022-09-20T07:06:38.889Z,1.20
2022-09-20T07:09:06.319Z,1.00
2022-09-20T07:11:35.164Z,1.15
2022-09-20T07:14:02.223Z,1.10
2022-09-20T07:16:29.631Z,0.80
2022-09-20T07:18:56.975Z,0.70
2022-09-20T07:21:24.456Z,0.80
2022-09-20T07:23:51.522Z,0.68
2022-09-20T07:26:25.014Z,0.70
2022-09-20T07:28:52.238Z,0.70
2022-09-20T07:31:21.017Z,0.50
2022-09-20T07:33:47.970Z,0.50
2022-09-20T07:36:16.689Z,0.50
2022-09-20T07:38:48.703Z,0.57
2022-09-20T07:41:15.674Z,0.75
2022-09-20T07:43:42.731Z,0.65
2022-09-20T07:46:12.174Z,1.83
2022-09-20T07:48:40.231Z,1.05
2022-09-20T07:51:11.163Z,1.33
2022-09-20T07:53:38.894Z,0.70
2022-09-20T07:56:08.436Z,0.52
2022-09-20T07:58:36.278Z,0.60
2022-09-20T08:01:08.720Z,0.40
2022-09-20T08:03:36.549Z,0.43
2022-09-20T08:06:09.336Z,0.60
2022-09-20T08:08:40.718Z,0.35
2022-09-20T08:11:08.862Z,0.30
2022-09-20T08:16:24.662Z,0.50
2022-09-20T08:18:59.926Z,0.38
2022-09-20T08:21:31.181Z,0.50
2022-09-20T08:23:59.324Z,0.50
2022-09-20T08:26:28.272Z,0.60
2022-09-20T08:28:57.609Z,0.50
2022-09-20T08:31:27.184Z,0.38
2022-09-20T08:33:54.861Z,0.32
2022-09-20T08:36:24.726Z,0.40
2022-09-20T08:41:57.378Z,0.63
2022-09-20T08:44:35.415Z,0.77
2022-09-20T08:47:10.024Z,0.77
2022-09-20T08:49:38.038Z,0.82
2022-09-20T08:52:10.261Z,0.63
2022-09-20T08:54:37.504Z,0.60
2022-09-20T08:57:12.186Z,0.30
2022-09-20T08:59:40.982Z,0.50
2022-09-20T09:02:20.155Z,0.38
2022-09-20T09:04:49.948Z,0.50
2022-09-20T09:07:21.873Z,0.52
2022-09-20T09:09:52.076Z,0.55
2022-09-20T09:12:25.665Z,0.35
2022-09-20T09:14:57.464Z,0.50
2022-09-20T09:17:28.052Z,0.45
2022-09-20T09:19:57.344Z,0.60
2022-09-20T09:22:26.595Z,0.35
2022-09-20T09:25:49.792Z,0.50
2022-09-20T09:28:40.474Z,0.47
2022-09-20T09:31:23.704Z,0.35
2022-09-20T09:33:50.678Z,0.30
2022-09-20T09:36:24.392Z,0.38
2022-09-20T09:39:11.886Z,0.30
2022-09-20T09:41:38.887Z,0.50
2022-09-20T09:44:11.035Z,0.47
2022-09-20T09:46:42.729Z,0.45
2022-09-20T09:49:18.314Z,0.40
2022-09-20T09:52:05.495Z,0.30
2022-09-20T09:54:40.675Z,0.20
2022-09-20T09:57:29.120Z,0.38
2022-09-20T10:00:06.257Z,0.30
2022-09-20T10:03:04.978Z,0.20
2022-09-20T10:05:35.922Z,0.28
2022-09-20T10:08:40.210Z,0.15
2022-09-20T10:11:30.239Z,0.28
2022-09-20T10:14:29.727Z,0.32
2022-09-20T10:17:05.804Z,0.20
2022-09-20T10:19:51.171Z,0.28
2022-09-20T10:22:40.714Z,0.20
2022-09-20T10:34:16.104Z,0.20
2022-09-20T10:36:51.755Z,0.30
2022-09-20T10:39:38.256Z,0.30
2022-09-20T10:42:38.842Z,0.20
2022-09-20T10:45:50.844Z,0.20
2022-09-20T10:48:18.539Z,0.50
2022-09-20T10:51:07.378Z,0.40
2022-09-20T10:53:50.053Z,0.32
2022-09-20T10:56:19.704Z,0.30
2022-09-20T10:59:01.452Z,0.22
2022-09-20T11:01:34.688Z,0.38
2022-09-20T11:04:24.549Z,0.40
2022-09-20T11:07:12.794Z,0.50
2022-09-20T11:10:34.570Z,0.30
2022-09-20T11:13:08.636Z,0.35
2022-09-20T11:15:39.108Z,0.40
2022-09-20T11:18:15.062Z,0.20
2022-09-20T11:20:47.424Z,0.40
2022-09-20T11:23:22.639Z,0.20
2022-09-20T11:25:55.688Z,0.30
2022-09-20T11:28:33.397Z,0.13
2022-09-20T11:31:26.298Z,0.30
2022-09-20T11:34:00.209Z,0.40
2022-09-20T11:36:53.713Z,0.30
2022-09-20T11:39:35.771Z,0.47
2022-09-20T11:42:05.286Z,0.20
2022-09-20T11:44:35.307Z,0.10
2022-09-20T11:47:11.851Z,0.10
2022-09-20T11:49:47.668Z,0.20
2022-09-20T11:52:35.299Z,0.20
2022-09-20T11:55:23.637Z,0.28
2022-09-20T11:58:09.456Z,0.20
2022-09-20T12:00:41.462Z,0.10
2022-09-20T12:03:26.517Z,0.20
2022-09-20T12:08:38.350Z,0.40
2022-09-20T12:11:10.303Z,0.30
2022-09-20T12:13:40.449Z,0.25
2022-09-20T12:16:34.883Z,0.22
2022-09-20T12:19:08.061Z,0.20
2022-09-20T12:21:59.776Z,0.20
2022-09-20T12:24:45.278Z,0.17
2022-09-20T12:27:41.770Z,0.20
2022-09-20T12:30:20.312Z,0.25
2022-09-20T12:32:57.392Z,0.20
2022-09-20T12:35:36.497Z,0.30
2022-09-20T12:38:21.569Z,0.15
2022-09-20T12:41:27.788Z,0.30
2022-09-20T12:43:57.733Z,0.20
2022-09-20T12:46:39.895Z,0.30
2022-09-20T12:49:48.127Z,0.22
2022-09-20T12:53:01.530Z,0.20
2022-09-20T12:55:49.672Z,0.30
2022-09-20T12:58:24.384Z,0.30
2022-09-20T13:06:20.163Z,0.20
2022-09-20T13:09:02.453Z,0.30
2022-09-20T13:11:43.856Z,0.20
2022-09-20T13:14:22.786Z,0.20
2022-09-20T13:16:57.717Z,0.38
2022-09-20T13:22:18.318Z,0.30
2022-09-20T13:24:48.386Z,0.20
2022-09-20T13:27:34.536Z,0.20
2022-09-20T13:30:10.429Z,0.20
2022-09-20T13:32:41.764Z,0.30
2022-09-20T13:35:18.955Z,0.20
2022-09-20T13:38:00.305Z,0.38
2022-09-20T13:40:39.939Z,0.30
2022-09-20T13:43:43.849Z,0.40
2022-09-20T13:46:24.470Z,0.25
2022-09-20T13:49:09.326Z,0.30
2022-09-20T13:51:36.436Z,0.30
2022-09-20T13:54:29.880Z,0.40
2022-09-20T13:57:00.965Z,0.30
2022-09-20T13:59:36.688Z,0.30
2022-09-20T14:02:04.255Z,0.32
2022-09-20T14:04:31.895Z,0.38
2022-09-20T14:07:00.737Z,0.50
2022-09-20T14:09:32.976Z,0.40
2022-09-20T14:12:00.367Z,0.30
2022-09-20T14:14:28.677Z,0.55
2022-09-20T14:16:58.040Z,0.20
2022-09-20T14:19:40.647Z,0.40
2022-09-20T14:22:08.612Z,0.50
2022-09-20T14:24:37.429Z,0.28
2022-09-20T14:27:21.903Z,0.30
2022-09-20T14:29:51.215Z,0.57
2022-09-20T14:32:18.089Z,0.15
2022-09-20T14:35:23.445Z,0.40
2022-09-20T14:38:06.109Z,0.30
2022-09-20T14:40:47.920Z,0.30
2022-09-20T14:43:29.344Z,0.28
2022-09-20T14:46:01.930Z,0.20
2022-09-20T14:48:34.739Z,0.30
2022-09-20T14:51:16.525Z,0.30
2022-09-20T14:53:48.110Z,0.25
2022-09-20T14:56:16.583Z,0.60
2022-09-20T14:59:06.994Z,0.22
2022-09-20T15:01:36.201Z,0.20
2022-09-20T15:04:09.058Z,0.30
2022-09-20T15:06:40.079Z,0.20
2022-09-20T15:09:07.147Z,0.20
2022-09-20T15:11:34.220Z,0.20
2022-09-20T15:14:01.090Z,0.30
2022-09-20T15:16:29.000Z,0.30
2022-09-20T15:18:56.496Z,0.40
2022-09-20T15:21:23.890Z,0.30
2022-09-20T15:23:50.816Z,0.40
2022-09-20T15:26:20.239Z,0.30
2022-09-20T15:28:48.174Z,0.75
2022-09-20T15:31:17.220Z,0.35
2022-09-20T15:33:44.219Z,0.50
2022-09-20T15:36:11.603Z,0.45
2022-09-20T15:38:39.232Z,0.30
2022-09-20T15:41:06.424Z,0.30
2022-09-20T15:43:33.619Z,0.40
2022-09-20T15:46:17.455Z,0.30
2022-09-20T15:48:44.347Z,0.55
2022-09-20T15:51:12.676Z,0.40
2022-09-20T15:53:49.411Z,0.40
2022-09-20T15:56:22.287Z,0.40
2022-09-20T15:58:59.121Z,0.60
2022-09-20T16:01:28.225Z,0.50
2022-09-20T16:03:56.421Z,0.30
2022-09-20T16:06:24.027Z,0.60
2022-09-20T16:08:51.994Z,0.30
2022-09-20T16:11:22.970Z,0.50
2022-09-20T16:13:58.222Z,0.40
2022-09-20T16:16:27.070Z,0.47
2022-09-20T16:19:12.810Z,0.50
2022-09-20T16:21:42.698Z,0.70
2022-09-20T16:24:12.722Z,0.40
2022-09-20T16:26:40.476Z,0.50
2022-09-20T16:29:07.830Z,0.93
2022-09-20T16:31:41.865Z,1.00
2022-09-20T16:34:19.459Z,1.03
2022-09-20T16:36:47.521Z,1.02
2022-09-20T16:39:15.852Z,0.90
2022-09-20T16:41:45.403Z,0.55
2022-09-20T16:44:13.245Z,1.00
2022-09-20T16:46:40.658Z,0.70
2022-09-20T16:49:09.765Z,0.50
2022-09-20T16:51:38.808Z,0.60
2022-09-20T16:54:10.818Z,0.70
2022-09-20T16:56:39.641Z,0.68
2022-09-20T16:59:07.661Z,0.43
2022-09-20T17:01:37.719Z,0.50
2022-09-20T17:04:05.859Z,1.45
2022-09-20T17:06:35.156Z,0.75
2022-09-20T17:09:03.330Z,0.60
2022-09-20T17:11:33.274Z,0.70
2022-09-20T17:14:00.346Z,0.57
2022-09-20T17:16:30.221Z,0.80
2022-09-20T17:18:59.049Z,0.73
2022-09-20T17:21:27.203Z,0.88
2022-09-20T17:23:56.726Z,0.60
2022-09-20T17:26:40.358Z,0.90
2022-09-20T17:29:10.404Z,1.15
2022-09-20T17:31:39.745Z,1.15
2022-09-20T17:34:09.601Z,0.98
2022-09-20T17:36:42.091Z,1.30
2022-09-20T17:39:12.314Z,1.15
2022-09-20T17:41:41.130Z,1.02
2022-09-20T17:44:08.634Z,1.90
2022-09-20T17:46:37.931Z,1.25
2022-09-20T17:49:13.661Z,1.90
2022-09-20T17:51:46.722Z,1.13
2022-09-20T17:54:14.490Z,1.85
2022-09-20T17:56:43.739Z,1.05
2022-09-20T17:59:12.066Z,0.88
2022-09-20T18:01:40.385Z,1.10
2022-09-20T18:04:08.926Z,0.90
2022-09-20T18:06:47.620Z,1.20
2022-09-20T18:09:17.347Z,0.90
2022-09-20T18:11:49.969Z,1.05
2022-09-20T18:14:18.854Z,1.17
2022-09-20T18:16:46.717Z,0.98
2022-09-20T18:19:16.336Z,0.60
2022-09-20T18:21:43.979Z,0.45
2022-09-20T18:24:12.155Z,0.60
2022-09-20T18:26:40.079Z,0.80
2022-09-20T18:29:17.852Z,0.80
2022-09-20T18:31:54.441Z,0.93
2022-09-20T18:34:23.591Z,0.60
2022-09-20T18:36:53.436Z,0.80
2022-09-20T18:39:25.446Z,0.90
2022-09-20T18:41:53.394Z,0.98
2022-09-20T18:44:23.994Z,0.95
2022-09-20T18:46:55.381Z,0.60
2022-09-20T18:49:22.732Z,1.23
2022-09-20T18:51:50.113Z,0.65
2022-09-20T18:54:17.833Z,0.80
2022-09-20T18:56:47.826Z,0.90
2022-09-20T18:59:14.912Z,0.70
2022-09-20T19:01:51.025Z,0.98
2022-09-20T19:04:39.225Z,0.82
2022-09-20T19:07:27.119Z,1.10
2022-09-20T19:10:06.163Z,0.98
2022-09-20T19:12:51.468Z,1.75
2022-09-20T19:15:36.904Z,1.13
2022-09-20T19:18:24.173Z,0.85
2022-09-20T19:21:06.662Z,0.95
2022-09-20T19:24:02.958Z,1.00
2022-09-20T19:26:32.414Z,1.13
2022-09-20T19:29:00.315Z,0.80
2022-09-20T19:31:32.850Z,1.08
2022-09-20T19:34:03.206Z,0.73
2022-09-20T19:36:42.267Z,1.10
2022-09-20T19:39:20.741Z,0.70
2022-09-20T19:41:54.006Z,0.90
2022-09-20T19:44:32.509Z,0.90
2022-09-20T19:47:39.291Z,0.93
2022-09-20T19:50:27.947Z,0.90
2022-09-20T19:52:58.318Z,0.80
2022-09-20T19:55:25.594Z,1.00
2022-09-20T19:57:53.494Z,0.85
2022-09-20T20:00:21.678Z,1.10
2022-09-20T20:02:49.226Z,1.20
2022-09-20T20:05:25.590Z,0.85
2022-09-20T20:08:05.628Z,1.10
2022-09-20T20:10:50.449Z,1.95
2022-09-20T20:14:03.238Z,0.80
2022-09-20T20:16:35.926Z,1.60
2022-09-20T20:19:15.059Z,1.33
2022-09-20T20:21:47.984Z,1.65
2022-09-20T20:24:21.271Z,1.80
2022-09-20T20:26:48.302Z,1.95
2022-09-20T20:29:15.250Z,2.10
2022-09-20T20:31:42.164Z,3.05
2022-09-20T20:34:09.206Z,2.05
2022-09-20T20:36:36.056Z,1.52
2022-09-20T20:39:02.942Z,1.10
2022-09-20T20:41:31.953Z,1.30
2022-09-20T20:43:59.007Z,1.58
2022-09-20T20:46:26.078Z,1.23
2022-09-20T20:48:53.120Z,1.10
2022-09-20T20:51:21.852Z,1.10
2022-09-20T20:53:54.005Z,1.20
2022-09-20T20:56:25.988Z,1.30
2022-09-20T20:58:53.760Z,1.17
2022-09-20T21:01:23.713Z,1.40
2022-09-20T21:03:56.120Z,1.35
2022-09-20T21:06:26.027Z,1.58
2022-09-20T21:08:53.394Z,1.08
2022-09-20T21:11:32.780Z,1.30
2022-09-20T21:14:02.134Z,1.20
2022-09-20T21:16:35.851Z,1.13
2022-09-20T21:19:05.113Z,1.30
2022-09-20T21:21:38.972Z,1.10
2022-09-20T21:24:10.106Z,1.10
2022-09-20T21:26:38.249Z,1.20
2022-09-20T21:29:08.123Z,0.98
2022-09-20T21:31:38.043Z,1.60
2022-09-20T21:34:09.248Z,1.20
2022-09-20T21:36:38.869Z,1.40
2022-09-20T21:39:06.495Z,1.70
2022-09-20T21:41:36.211Z,1.90
2022-09-20T21:44:04.660Z,1.80
2022-09-20T21:46:37.316Z,1.50
2022-09-20T21:49:08.023Z,1.90
2022-09-20T21:51:35.639Z,2.00
2022-09-20T21:54:03.968Z,1.92
2022-09-20T21:56:36.358Z,2.05
2022-09-20T21:59:04.574Z,2.20
2022-09-20T22:01:34.656Z,1.52
2022-09-20T22:04:05.947Z,2.10
2022-09-20T22:06:35.793Z,1.23
2022-09-20T22:09:06.477Z,2.65
2022-09-20T22:11:41.183Z,1.95
2022-09-20T22:14:09.902Z,2.00
2022-09-20T22:16:39.873Z,1.40
2022-09-20T22:19:09.827Z,1.80
2022-09-20T22:21:39.709Z,2.00
2022-09-20T22:24:08.694Z,2.30
2022-09-20T22:26:37.641Z,1.77
2022-09-20T22:29:06.585Z,2.22
2022-09-20T22:31:36.621Z,2.30
2022-09-20T22:34:06.343Z,2.17
2022-09-20T22:36:41.337Z,2.05
2022-09-20T22:39:09.960Z,1.50
2022-09-20T22:41:38.938Z,1.95
2022-09-20T22:44:06.324Z,1.80
2022-09-20T22:46:34.097Z,2.20
2022-09-20T22:49:01.223Z,1.67
2022-09-20T22:51:31.466Z,1.90
2022-09-20T22:53:58.318Z,1.88
2022-09-20T22:56:30.096Z,1.85
2022-09-20T22:59:03.827Z,2.17
2022-09-20T23:01:33.653Z,2.30
2022-09-20T23:04:07.872Z,2.08
2022-09-20T23:06:40.861Z,2.05
2022-09-20T23:09:10.979Z,2.47
2022-09-20T23:11:39.801Z,2.63
2022-09-20T23:14:06.962Z,2.15
2022-09-20T23:16:36.657Z,2.42
2022-09-20T23:19:05.748Z,2.15
2022-09-20T23:21:34.130Z,1.90
2022-09-20T23:24:03.089Z,2.13
2022-09-20T23:26:32.590Z,1.85
2022-09-20T23:29:07.676Z,1.63
2022-09-20T23:31:37.138Z,1.52
2022-09-20T23:34:06.630Z,1.95
2022-09-20T23:36:38.127Z,2.42
2022-09-20T23:39:06.670Z,3.38
2022-09-20T23:41:34.244Z,2.70
2022-09-20T23:44:01.269Z,2.92
2022-09-20T23:46:28.245Z,2.92
2022-09-20T23:48:55.165Z,3.40
2022-09-20T23:51:24.641Z,4.10
2022-09-20T23:53:52.858Z,3.55
2022-09-20T23:56:21.672Z,3.08
2022-09-20T23:58:49.239Z,3.80
